Dallas Fort Worth International Airport
KDFW : now visible

Airfield :











YOU CAN JOIN US ON...

 
LOGIN :

Register | Disclaimer

   EN    FR    IT 

 









Legend :    VFR   Marginal VFR   IFR   Intensive IFR   Very Intensive IFR
Visi :
Ceiling :
>= 8 km
>= 3000ft
5 to 8 km
1000 to 3000 ft
1500m to 5 km
500 to 1000 ft
800 to 1500m
200 to 500 ft
< 800m
< 200 ft
Symbols :   Thunderstorms  Fog  Heavy snow  Heavy precipitations  Wind > 20 kt






- Airport Elevation : 607 ft
- IATA code : DFW


KDFW - Dallas Fort Worth International

CURRENT METAR :
  • 072053Z 21013KT 10SM FEW045 BKN240 BKN300 31/18 A2983 RMK AO2 SLP092 T03060183 56020

EXPIRED METARs :
  • 071953Z 20014KT 10SM FEW045 BKN230 BKN300 29/18 A2985 RMK AO2 SLP100 T02940183
  • 071853Z 19010KT 10SM FEW035 BKN240 30/19 A2987 RMK AO2 SLP106 T03000189

TAF KDFW
Valid from the 07 at 18:00 until the 09 at 00:00 UTC


071726Z 0718/0824 21011KT P6SM SCT250
FM081400 25007KT P6SM FEW250



MET'MAP, your aeronautical weather chart ! - Copyright ORBIFLY December 2007 - Disclaimer

ORBIFLY MET'MAP TEAM :

Programming & Development : Alexandra Zaïnal
Concept & original design : Baudouin d'Aumeries
Assistance for programming : Marc-Olivier Méhu
Technical & hardware support : Manuel Goepfert

Contact : metmap@orbifly.com




SOURCES & CREDITS :

   NOAA       Earth
Advisory